sensor_id;sensor_type;location;lat;lon;timestamp;P1;durP1;ratioP1;P2;durP2;ratioP2
80539;SDS011;69869;48.036;15.780;2024-03-17T00:02:18;1.50;;;1.40;;
80539;SDS011;69869;48.036;15.780;2024-03-17T00:04:44;1.27;;;1.20;;
80539;SDS011;69869;48.036;15.780;2024-03-17T00:07:11;1.20;;;1.10;;
80539;SDS011;69869;48.036;15.780;2024-03-17T00:09:37;1.42;;;1.33;;
80539;SDS011;69869;48.036;15.780;2024-03-17T00:12:02;1.30;;;1.20;;
80539;SDS011;69869;48.036;15.780;2024-03-17T00:14:28;1.00;;;1.00;;
80539;SDS011;69869;48.036;15.780;2024-03-17T00:16:54;1.30;;;1.20;;
80539;SDS011;69869;48.036;15.780;2024-03-17T00:19:20;1.05;;;1.05;;
80539;SDS011;69869;48.036;15.780;2024-03-17T00:21:48;1.10;;;1.10;;
80539;SDS011;69869;48.036;15.780;2024-03-17T00:24:17;0.90;;;0.90;;
80539;SDS011;69869;48.036;15.780;2024-03-17T00:26:44;0.88;;;0.88;;
80539;SDS011;69869;48.036;15.780;2024-03-17T00:29:10;0.90;;;0.90;;
80539;SDS011;69869;48.036;15.780;2024-03-17T00:31:36;1.10;;;1.00;;
80539;SDS011;69869;48.036;15.780;2024-03-17T00:34:02;2.03;;;1.20;;
80539;SDS011;69869;48.036;15.780;2024-03-17T00:36:29;0.90;;;0.90;;
80539;SDS011;69869;48.036;15.780;2024-03-17T00:38:55;1.10;;;1.10;;
80539;SDS011;69869;48.036;15.780;2024-03-17T00:41:20;1.17;;;1.08;;
80539;SDS011;69869;48.036;15.780;2024-03-17T00:43:46;1.20;;;1.10;;
80539;SDS011;69869;48.036;15.780;2024-03-17T00:46:12;1.20;;;1.10;;
80539;SDS011;69869;48.036;15.780;2024-03-17T00:48:38;2.92;;;1.40;;
80539;SDS011;69869;48.036;15.780;2024-03-17T00:51:04;2.20;;;1.30;;
80539;SDS011;69869;48.036;15.780;2024-03-17T00:53:30;1.67;;;1.30;;
80539;SDS011;69869;48.036;15.780;2024-03-17T00:55:56;1.27;;;1.17;;
80539;SDS011;69869;48.036;15.780;2024-03-17T00:58:25;1.45;;;1.35;;
80539;SDS011;69869;48.036;15.780;2024-03-17T01:00:52;1.20;;;1.20;;
80539;SDS011;69869;48.036;15.780;2024-03-17T01:03:17;1.20;;;1.20;;
80539;SDS011;69869;48.036;15.780;2024-03-17T01:05:43;1.42;;;1.20;;
80539;SDS011;69869;48.036;15.780;2024-03-17T01:08:11;1.17;;;1.10;;
80539;SDS011;69869;48.036;15.780;2024-03-17T01:10:40;1.35;;;1.25;;
80539;SDS011;69869;48.036;15.780;2024-03-17T01:13:07;1.10;;;1.02;;
80539;SDS011;69869;48.036;15.780;2024-03-17T01:15:34;1.38;;;1.25;;
80539;SDS011;69869;48.036;15.780;2024-03-17T01:18:03;1.30;;;1.20;;
80539;SDS011;69869;48.036;15.780;2024-03-17T01:20:30;1.13;;;1.10;;
80539;SDS011;69869;48.036;15.780;2024-03-17T01:22:56;1.52;;;1.30;;
80539;SDS011;69869;48.036;15.780;2024-03-17T01:25:22;1.33;;;1.20;;
80539;SDS011;69869;48.036;15.780;2024-03-17T01:27:47;1.25;;;1.23;;
80539;SDS011;69869;48.036;15.780;2024-03-17T01:30:13;1.40;;;1.33;;
80539;SDS011;69869;48.036;15.780;2024-03-17T01:32:39;1.50;;;1.40;;
80539;SDS011;69869;48.036;15.780;2024-03-17T01:35:05;1.40;;;1.30;;
80539;SDS011;69869;48.036;15.780;2024-03-17T01:37:33;1.38;;;1.27;;
80539;SDS011;69869;48.036;15.780;2024-03-17T01:39:59;1.75;;;1.48;;
80539;SDS011;69869;48.036;15.780;2024-03-17T01:42:25;1.63;;;1.38;;
80539;SDS011;69869;48.036;15.780;2024-03-17T01:44:50;1.50;;;1.40;;
80539;SDS011;69869;48.036;15.780;2024-03-17T01:47:19;1.50;;;1.40;;
80539;SDS011;69869;48.036;15.780;2024-03-17T01:49:48;1.40;;;1.30;;
80539;SDS011;69869;48.036;15.780;2024-03-17T01:52:14;1.48;;;1.38;;
80539;SDS011;69869;48.036;15.780;2024-03-17T01:54:41;2.67;;;1.40;;
80539;SDS011;69869;48.036;15.780;2024-03-17T01:57:08;1.63;;;1.50;;
80539;SDS011;69869;48.036;15.780;2024-03-17T01:59:35;1.45;;;1.33;;
80539;SDS011;69869;48.036;15.780;2024-03-17T02:02:01;1.95;;;1.65;;
80539;SDS011;69869;48.036;15.780;2024-03-17T02:04:27;1.65;;;1.48;;
80539;SDS011;69869;48.036;15.780;2024-03-17T02:06:53;1.50;;;1.40;;
80539;SDS011;69869;48.036;15.780;2024-03-17T02:09:19;1.83;;;1.40;;
80539;SDS011;69869;48.036;15.780;2024-03-17T02:11:47;1.60;;;1.45;;
80539;SDS011;69869;48.036;15.780;2024-03-17T02:14:13;1.75;;;1.50;;
80539;SDS011;69869;48.036;15.780;2024-03-17T02:16:39;1.88;;;1.70;;
80539;SDS011;69869;48.036;15.780;2024-03-17T02:19:05;1.80;;;1.70;;
80539;SDS011;69869;48.036;15.780;2024-03-17T02:21:31;1.63;;;1.52;;
80539;SDS011;69869;48.036;15.780;2024-03-17T02:23:57;1.70;;;1.60;;
80539;SDS011;69869;48.036;15.780;2024-03-17T02:26:23;1.48;;;1.38;;
80539;SDS011;69869;48.036;15.780;2024-03-17T02:28:51;1.90;;;1.60;;
80539;SDS011;69869;48.036;15.780;2024-03-17T02:31:17;1.77;;;1.67;;
80539;SDS011;69869;48.036;15.780;2024-03-17T02:33:43;2.42;;;1.90;;
80539;SDS011;69869;48.036;15.780;2024-03-17T02:36:10;1.70;;;1.60;;
80539;SDS011;69869;48.036;15.780;2024-03-17T02:38:36;1.80;;;1.70;;
80539;SDS011;69869;48.036;15.780;2024-03-17T02:41:24;1.65;;;1.50;;
80539;SDS011;69869;48.036;15.780;2024-03-17T02:43:50;1.83;;;1.73;;
80539;SDS011;69869;48.036;15.780;2024-03-17T02:46:16;2.40;;;1.90;;
80539;SDS011;69869;48.036;15.780;2024-03-17T02:48:43;2.38;;;1.80;;
80539;SDS011;69869;48.036;15.780;2024-03-17T02:51:14;1.95;;;1.80;;
80539;SDS011;69869;48.036;15.780;2024-03-17T02:53:41;1.70;;;1.60;;
80539;SDS011;69869;48.036;15.780;2024-03-17T02:56:08;2.25;;;2.08;;
80539;SDS011;69869;48.036;15.780;2024-03-17T02:58:35;1.88;;;1.77;;
80539;SDS011;69869;48.036;15.780;2024-03-17T03:01:01;2.00;;;1.88;;
80539;SDS011;69869;48.036;15.780;2024-03-17T03:03:29;2.20;;;1.88;;
80539;SDS011;69869;48.036;15.780;2024-03-17T03:05:55;2.00;;;1.90;;
80539;SDS011;69869;48.036;15.780;2024-03-17T03:08:22;1.88;;;1.75;;
80539;SDS011;69869;48.036;15.780;2024-03-17T03:10:50;2.95;;;1.95;;
80539;SDS011;69869;48.036;15.780;2024-03-17T03:13:16;1.80;;;1.70;;
80539;SDS011;69869;48.036;15.780;2024-03-17T03:15:42;1.98;;;1.77;;
80539;SDS011;69869;48.036;15.780;2024-03-17T03:18:08;1.85;;;1.65;;
80539;SDS011;69869;48.036;15.780;2024-03-17T03:20:34;2.15;;;1.95;;
80539;SDS011;69869;48.036;15.780;2024-03-17T03:23:00;1.60;;;1.50;;
80539;SDS011;69869;48.036;15.780;2024-03-17T03:25:26;1.88;;;1.60;;
80539;SDS011;69869;48.036;15.780;2024-03-17T03:27:52;1.85;;;1.70;;
80539;SDS011;69869;48.036;15.780;2024-03-17T03:30:18;1.83;;;1.67;;
80539;SDS011;69869;48.036;15.780;2024-03-17T03:32:46;1.85;;;1.75;;
80539;SDS011;69869;48.036;15.780;2024-03-17T03:35:12;2.17;;;1.98;;
80539;SDS011;69869;48.036;15.780;2024-03-17T03:37:39;2.20;;;2.00;;
80539;SDS011;69869;48.036;15.780;2024-03-17T03:40:06;2.15;;;2.00;;
80539;SDS011;69869;48.036;15.780;2024-03-17T03:42:44;2.13;;;1.92;;
80539;SDS011;69869;48.036;15.780;2024-03-17T03:45:10;1.90;;;1.80;;
80539;SDS011;69869;48.036;15.780;2024-03-17T03:47:39;2.20;;;2.00;;
80539;SDS011;69869;48.036;15.780;2024-03-17T03:50:15;2.60;;;2.28;;
80539;SDS011;69869;48.036;15.780;2024-03-17T03:52:42;2.20;;;2.10;;
80539;SDS011;69869;48.036;15.780;2024-03-17T03:55:08;2.55;;;2.35;;
80539;SDS011;69869;48.036;15.780;2024-03-17T03:57:40;2.72;;;2.25;;
80539;SDS011;69869;48.036;15.780;2024-03-17T04:00:13;3.38;;;2.72;;
80539;SDS011;69869;48.036;15.780;2024-03-17T04:02:46;3.30;;;3.00;;
80539;SDS011;69869;48.036;15.780;2024-03-17T04:05:16;2.50;;;2.30;;
80539;SDS011;69869;48.036;15.780;2024-03-17T04:07:45;2.85;;;2.65;;
80539;SDS011;69869;48.036;15.780;2024-03-17T04:10:13;2.90;;;2.70;;
80539;SDS011;69869;48.036;15.780;2024-03-17T04:12:39;2.90;;;2.70;;
80539;SDS011;69869;48.036;15.780;2024-03-17T04:15:05;3.00;;;2.78;;
80539;SDS011;69869;48.036;15.780;2024-03-17T04:17:31;2.85;;;2.65;;
80539;SDS011;69869;48.036;15.780;2024-03-17T04:19:58;2.90;;;2.70;;
80539;SDS011;69869;48.036;15.780;2024-03-17T04:22:23;2.97;;;2.67;;
80539;SDS011;69869;48.036;15.780;2024-03-17T04:24:49;3.92;;;3.38;;
80539;SDS011;69869;48.036;15.780;2024-03-17T04:27:21;3.85;;;3.40;;
80539;SDS011;69869;48.036;15.780;2024-03-17T04:29:51;3.25;;;2.95;;
80539;SDS011;69869;48.036;15.780;2024-03-17T04:32:18;2.90;;;2.70;;
80539;SDS011;69869;48.036;15.780;2024-03-17T04:34:44;3.25;;;2.95;;
80539;SDS011;69869;48.036;15.780;2024-03-17T04:37:10;3.25;;;2.95;;
80539;SDS011;69869;48.036;15.780;2024-03-17T04:39:37;2.83;;;2.60;;
80539;SDS011;69869;48.036;15.780;2024-03-17T04:42:08;2.72;;;2.53;;
80539;SDS011;69869;48.036;15.780;2024-03-17T04:44:34;2.75;;;2.55;;
80539;SDS011;69869;48.036;15.780;2024-03-17T04:47:00;2.70;;;2.50;;
80539;SDS011;69869;48.036;15.780;2024-03-17T04:49:25;2.90;;;2.70;;
80539;SDS011;69869;48.036;15.780;2024-03-17T04:51:51;2.63;;;2.42;;
80539;SDS011;69869;48.036;15.780;2024-03-17T04:54:17;3.42;;;2.85;;
80539;SDS011;69869;48.036;15.780;2024-03-17T04:56:42;2.88;;;2.67;;
80539;SDS011;69869;48.036;15.780;2024-03-17T04:59:08;3.08;;;2.78;;
80539;SDS011;69869;48.036;15.780;2024-03-17T05:01:34;2.95;;;2.70;;
80539;SDS011;69869;48.036;15.780;2024-03-17T05:04:07;2.90;;;2.70;;
80539;SDS011;69869;48.036;15.780;2024-03-17T05:06:33;3.22;;;2.83;;
80539;SDS011;69869;48.036;15.780;2024-03-17T05:08:58;2.72;;;2.53;;
80539;SDS011;69869;48.036;15.780;2024-03-17T05:11:24;2.90;;;2.70;;
80539;SDS011;69869;48.036;15.780;2024-03-17T05:13:50;2.80;;;2.60;;
80539;SDS011;69869;48.036;15.780;2024-03-17T05:16:15;3.33;;;2.78;;
80539;SDS011;69869;48.036;15.780;2024-03-17T05:18:41;3.25;;;2.88;;
80539;SDS011;69869;48.036;15.780;2024-03-17T05:21:08;2.92;;;2.63;;
80539;SDS011;69869;48.036;15.780;2024-03-17T05:23:34;3.13;;;2.83;;
80539;SDS011;69869;48.036;15.780;2024-03-17T05:26:04;2.75;;;2.55;;
80539;SDS011;69869;48.036;15.780;2024-03-17T05:28:30;3.08;;;2.78;;
80539;SDS011;69869;48.036;15.780;2024-03-17T05:30:56;3.00;;;2.75;;
80539;SDS011;69869;48.036;15.780;2024-03-17T05:33:22;3.13;;;2.85;;
80539;SDS011;69869;48.036;15.780;2024-03-17T05:35:53;2.97;;;2.70;;
80539;SDS011;69869;48.036;15.780;2024-03-17T05:38:20;3.17;;;2.88;;
80539;SDS011;69869;48.036;15.780;2024-03-17T05:40:57;4.13;;;3.17;;
80539;SDS011;69869;48.036;15.780;2024-03-17T05:43:27;3.80;;;2.95;;
80539;SDS011;69869;48.036;15.780;2024-03-17T05:45:56;3.53;;;3.20;;
80539;SDS011;69869;48.036;15.780;2024-03-17T05:48:23;3.65;;;3.15;;
80539;SDS011;69869;48.036;15.780;2024-03-17T05:50:49;3.47;;;3.17;;
80539;SDS011;69869;48.036;15.780;2024-03-17T05:53:16;3.78;;;3.38;;
80539;SDS011;69869;48.036;15.780;2024-03-17T05:55:43;4.13;;;3.20;;
80539;SDS011;69869;48.036;15.780;2024-03-17T05:58:10;3.72;;;3.38;;
80539;SDS011;69869;48.036;15.780;2024-03-17T06:00:36;3.25;;;2.95;;
80539;SDS011;69869;48.036;15.780;2024-03-17T06:03:03;3.63;;;3.13;;
80539;SDS011;69869;48.036;15.780;2024-03-17T06:05:32;3.28;;;2.97;;
80539;SDS011;69869;48.036;15.780;2024-03-17T06:08:00;3.47;;;3.05;;
80539;SDS011;69869;48.036;15.780;2024-03-17T06:10:30;3.27;;;2.80;;
80539;SDS011;69869;48.036;15.780;2024-03-17T06:12:59;3.08;;;2.63;;
80539;SDS011;69869;48.036;15.780;2024-03-17T06:15:25;3.35;;;2.83;;
80539;SDS011;69869;48.036;15.780;2024-03-17T06:17:51;3.03;;;2.70;;
80539;SDS011;69869;48.036;15.780;2024-03-17T06:20:18;2.88;;;2.67;;
80539;SDS011;69869;48.036;15.780;2024-03-17T06:22:44;2.63;;;2.15;;
80539;SDS011;69869;48.036;15.780;2024-03-17T06:25:11;5.25;;;2.97;;
80539;SDS011;69869;48.036;15.780;2024-03-17T06:27:37;3.28;;;2.70;;
80539;SDS011;69869;48.036;15.780;2024-03-17T06:30:02;20.63;;;4.00;;
80539;SDS011;69869;48.036;15.780;2024-03-17T06:32:32;2.60;;;2.40;;
80539;SDS011;69869;48.036;15.780;2024-03-17T06:35:01;2.83;;;2.55;;
80539;SDS011;69869;48.036;15.780;2024-03-17T06:37:27;3.85;;;2.80;;
80539;SDS011;69869;48.036;15.780;2024-03-17T06:39:53;2.70;;;2.50;;
80539;SDS011;69869;48.036;15.780;2024-03-17T06:42:18;3.45;;;2.75;;
80539;SDS011;69869;48.036;15.780;2024-03-17T06:44:44;3.05;;;2.75;;
80539;SDS011;69869;48.036;15.780;2024-03-17T06:47:10;3.83;;;2.83;;
80539;SDS011;69869;48.036;15.780;2024-03-17T06:49:36;4.20;;;3.13;;
80539;SDS011;69869;48.036;15.780;2024-03-17T06:52:01;3.17;;;2.50;;
80539;SDS011;69869;48.036;15.780;2024-03-17T06:54:27;2.70;;;2.50;;
80539;SDS011;69869;48.036;15.780;2024-03-17T06:56:53;2.92;;;2.60;;
80539;SDS011;69869;48.036;15.780;2024-03-17T06:59:19;3.13;;;2.58;;
80539;SDS011;69869;48.036;15.780;2024-03-17T07:01:45;2.78;;;2.33;;
80539;SDS011;69869;48.036;15.780;2024-03-17T07:04:12;2.80;;;2.60;;
80539;SDS011;69869;48.036;15.780;2024-03-17T07:06:38;6.03;;;2.70;;
80539;SDS011;69869;48.036;15.780;2024-03-17T07:09:03;3.30;;;2.60;;
80539;SDS011;69869;48.036;15.780;2024-03-17T07:11:29;3.03;;;2.70;;
80539;SDS011;69869;48.036;15.780;2024-03-17T07:13:55;2.40;;;2.20;;
80539;SDS011;69869;48.036;15.780;2024-03-17T07:16:20;2.53;;;2.33;;
80539;SDS011;69869;48.036;15.780;2024-03-17T07:18:47;2.80;;;2.30;;
80539;SDS011;69869;48.036;15.780;2024-03-17T07:21:12;2.47;;;2.28;;
80539;SDS011;69869;48.036;15.780;2024-03-17T07:23:38;2.60;;;2.28;;
80539;SDS011;69869;48.036;15.780;2024-03-17T07:26:04;2.95;;;2.47;;
80539;SDS011;69869;48.036;15.780;2024-03-17T07:28:30;2.60;;;2.40;;
80539;SDS011;69869;48.036;15.780;2024-03-17T07:30:57;4.10;;;2.33;;
80539;SDS011;69869;48.036;15.780;2024-03-17T07:33:23;3.20;;;2.60;;
80539;SDS011;69869;48.036;15.780;2024-03-17T07:35:53;2.55;;;2.20;;
80539;SDS011;69869;48.036;15.780;2024-03-17T07:38:25;3.35;;;2.67;;
80539;SDS011;69869;48.036;15.780;2024-03-17T07:41:03;2.75;;;2.53;;
80539;SDS011;69869;48.036;15.780;2024-03-17T07:43:31;3.88;;;2.30;;
80539;SDS011;69869;48.036;15.780;2024-03-17T07:46:02;2.75;;;2.35;;
80539;SDS011;69869;48.036;15.780;2024-03-17T07:50:56;2.53;;;2.30;;
80539;SDS011;69869;48.036;15.780;2024-03-17T07:53:23;4.07;;;2.90;;
80539;SDS011;69869;48.036;15.780;2024-03-17T07:56:01;4.68;;;3.38;;
80539;SDS011;69869;48.036;15.780;2024-03-17T07:58:30;6.65;;;5.60;;
80539;SDS011;69869;48.036;15.780;2024-03-17T08:01:01;9.43;;;6.50;;
80539;SDS011;69869;48.036;15.780;2024-03-17T08:03:31;15.18;;;10.93;;
80539;SDS011;69869;48.036;15.780;2024-03-17T08:06:01;11.77;;;8.55;;
80539;SDS011;69869;48.036;15.780;2024-03-17T08:08:28;8.60;;;6.32;;
80539;SDS011;69869;48.036;15.780;2024-03-17T08:10:54;6.93;;;5.35;;
80539;SDS011;69869;48.036;15.780;2024-03-17T08:13:20;7.65;;;5.75;;
80539;SDS011;69869;48.036;15.780;2024-03-17T08:15:47;6.57;;;4.50;;
80539;SDS011;69869;48.036;15.780;2024-03-17T08:18:24;4.53;;;4.03;;
80539;SDS011;69869;48.036;15.780;2024-03-17T08:20:50;4.28;;;3.70;;
80539;SDS011;69869;48.036;15.780;2024-03-17T08:23:16;5.55;;;3.45;;
80539;SDS011;69869;48.036;15.780;2024-03-17T08:25:41;4.72;;;3.83;;
80539;SDS011;69869;48.036;15.780;2024-03-17T08:28:07;3.92;;;3.17;;
80539;SDS011;69869;48.036;15.780;2024-03-17T08:30:33;4.88;;;3.92;;
80539;SDS011;69869;48.036;15.780;2024-03-17T08:32:59;3.53;;;3.22;;
80539;SDS011;69869;48.036;15.780;2024-03-17T08:35:25;3.85;;;3.50;;
80539;SDS011;69869;48.036;15.780;2024-03-17T08:37:51;3.78;;;3.40;;
80539;SDS011;69869;48.036;15.780;2024-03-17T08:40:19;4.03;;;3.15;;
80539;SDS011;69869;48.036;15.780;2024-03-17T08:42:45;3.65;;;3.13;;
80539;SDS011;69869;48.036;15.780;2024-03-17T08:45:11;3.53;;;3.20;;
80539;SDS011;69869;48.036;15.780;2024-03-17T08:47:37;4.60;;;3.50;;
80539;SDS011;69869;48.036;15.780;2024-03-17T08:50:03;4.43;;;3.38;;
80539;SDS011;69869;48.036;15.780;2024-03-17T08:52:30;4.22;;;3.33;;
80539;SDS011;69869;48.036;15.780;2024-03-17T08:54:58;3.65;;;2.92;;
80539;SDS011;69869;48.036;15.780;2024-03-17T08:57:24;3.38;;;2.90;;
80539;SDS011;69869;48.036;15.780;2024-03-17T08:59:50;3.33;;;3.03;;
80539;SDS011;69869;48.036;15.780;2024-03-17T09:02:19;3.35;;;3.05;;
80539;SDS011;69869;48.036;15.780;2024-03-17T09:04:46;3.60;;;3.30;;
80539;SDS011;69869;48.036;15.780;2024-03-17T09:07:12;3.83;;;3.05;;
80539;SDS011;69869;48.036;15.780;2024-03-17T09:09:40;3.22;;;2.90;;
80539;SDS011;69869;48.036;15.780;2024-03-17T09:12:06;3.75;;;3.20;;
80539;SDS011;69869;48.036;15.780;2024-03-17T09:14:32;3.42;;;3.10;;
80539;SDS011;69869;48.036;15.780;2024-03-17T09:16:58;4.68;;;3.40;;
80539;SDS011;69869;48.036;15.780;2024-03-17T09:19:24;3.80;;;3.40;;
80539;SDS011;69869;48.036;15.780;2024-03-17T09:21:49;3.40;;;3.10;;
80539;SDS011;69869;48.036;15.780;2024-03-17T09:24:15;4.82;;;3.15;;
80539;SDS011;69869;48.036;15.780;2024-03-17T09:26:41;4.13;;;3.28;;
80539;SDS011;69869;48.036;15.780;2024-03-17T09:29:06;4.70;;;3.45;;
80539;SDS011;69869;48.036;15.780;2024-03-17T09:31:32;3.70;;;3.20;;
80539;SDS011;69869;48.036;15.780;2024-03-17T09:34:00;3.70;;;3.25;;
80539;SDS011;69869;48.036;15.780;2024-03-17T09:36:26;6.57;;;3.75;;
80539;SDS011;69869;48.036;15.780;2024-03-17T09:38:52;4.10;;;3.70;;
80539;SDS011;69869;48.036;15.780;2024-03-17T09:41:22;4.30;;;3.72;;
80539;SDS011;69869;48.036;15.780;2024-03-17T09:43:50;3.38;;;3.08;;
80539;SDS011;69869;48.036;15.780;2024-03-17T09:46:18;3.50;;;3.20;;
80539;SDS011;69869;48.036;15.780;2024-03-17T09:48:44;4.32;;;3.47;;
80539;SDS011;69869;48.036;15.780;2024-03-17T09:51:15;3.80;;;3.20;;
80539;SDS011;69869;48.036;15.780;2024-03-17T09:53:44;3.65;;;3.35;;
80539;SDS011;69869;48.036;15.780;2024-03-17T09:56:15;3.60;;;3.30;;
80539;SDS011;69869;48.036;15.780;2024-03-17T09:58:44;5.15;;;4.20;;
80539;SDS011;69869;48.036;15.780;2024-03-17T10:01:10;3.97;;;3.45;;
80539;SDS011;69869;48.036;15.780;2024-03-17T10:03:40;3.65;;;3.00;;
80539;SDS011;69869;48.036;15.780;2024-03-17T10:06:07;4.63;;;3.55;;
80539;SDS011;69869;48.036;15.780;2024-03-17T10:08:40;5.43;;;4.32;;
80539;SDS011;69869;48.036;15.780;2024-03-17T10:11:06;4.43;;;3.67;;
80539;SDS011;69869;48.036;15.780;2024-03-17T10:13:32;235.20;;;60.83;;
80539;SDS011;69869;48.036;15.780;2024-03-17T10:15:57;178.05;;;46.17;;
80539;SDS011;69869;48.036;15.780;2024-03-17T10:18:23;154.32;;;44.90;;
80539;SDS011;69869;48.036;15.780;2024-03-17T10:20:49;134.05;;;41.88;;
80539;SDS011;69869;48.036;15.780;2024-03-17T10:23:21;152.20;;;44.38;;
80539;SDS011;69869;48.036;15.780;2024-03-17T10:25:47;131.25;;;40.50;;
80539;SDS011;69869;48.036;15.780;2024-03-17T10:28:14;140.95;;;42.78;;
80539;SDS011;69869;48.036;15.780;2024-03-17T10:30:41;115.10;;;37.08;;
80539;SDS011;69869;48.036;15.780;2024-03-17T10:33:22;112.78;;;36.30;;
80539;SDS011;69869;48.036;15.780;2024-03-17T10:35:50;103.05;;;34.53;;
80539;SDS011;69869;48.036;15.780;2024-03-17T10:38:22;88.63;;;31.27;;
80539;SDS011;69869;48.036;15.780;2024-03-17T10:40:48;85.22;;;30.35;;
80539;SDS011;69869;48.036;15.780;2024-03-17T10:43:13;100.78;;;32.90;;
80539;SDS011;69869;48.036;15.780;2024-03-17T10:45:39;92.57;;;29.92;;
80539;SDS011;69869;48.036;15.780;2024-03-17T10:48:07;86.45;;;28.88;;
80539;SDS011;69869;48.036;15.780;2024-03-17T10:50:37;75.50;;;26.63;;
80539;SDS011;69869;48.036;15.780;2024-03-17T10:53:04;65.97;;;24.20;;
80539;SDS011;69869;48.036;15.780;2024-03-17T10:55:39;72.95;;;24.98;;
80539;SDS011;69869;48.036;15.780;2024-03-17T10:58:53;65.63;;;24.45;;
80539;SDS011;69869;48.036;15.780;2024-03-17T11:01:13;71.82;;;24.33;;
80539;SDS011;69869;48.036;15.780;2024-03-17T11:03:40;63.58;;;23.60;;
80539;SDS011;69869;48.036;15.780;2024-03-17T11:06:06;54.15;;;19.52;;
80539;SDS011;69869;48.036;15.780;2024-03-17T11:08:33;60.60;;;21.13;;
80539;SDS011;69869;48.036;15.780;2024-03-17T11:11:00;56.03;;;20.02;;
80539;SDS011;69869;48.036;15.780;2024-03-17T11:13:29;57.78;;;20.42;;
80539;SDS011;69869;48.036;15.780;2024-03-17T11:15:56;61.67;;;21.02;;
80539;SDS011;69869;48.036;15.780;2024-03-17T11:18:31;51.47;;;19.73;;
80539;SDS011;69869;48.036;15.780;2024-03-17T11:26:06;43.30;;;16.75;;
80539;SDS011;69869;48.036;15.780;2024-03-17T11:34:06;38.63;;;15.02;;
80539;SDS011;69869;48.036;15.780;2024-03-17T11:36:53;31.75;;;13.73;;
80539;SDS011;69869;48.036;15.780;2024-03-17T11:39:19;31.73;;;13.45;;
80539;SDS011;69869;48.036;15.780;2024-03-17T11:41:52;29.55;;;12.75;;
80539;SDS011;69869;48.036;15.780;2024-03-17T11:46:53;29.35;;;12.45;;
80539;SDS011;69869;48.036;15.780;2024-03-17T11:51:58;31.92;;;12.48;;
80539;SDS011;69869;48.036;15.780;2024-03-17T11:54:33;27.05;;;12.13;;
80539;SDS011;69869;48.036;15.780;2024-03-17T11:57:03;25.17;;;11.23;;
80539;SDS011;69869;48.036;15.780;2024-03-17T11:59:31;26.90;;;11.30;;
80539;SDS011;69869;48.036;15.780;2024-03-17T12:01:57;24.25;;;10.63;;
80539;SDS011;69869;48.036;15.780;2024-03-17T12:04:24;24.08;;;10.13;;
80539;SDS011;69869;48.036;15.780;2024-03-17T12:06:50;23.73;;;9.77;;
80539;SDS011;69869;48.036;15.780;2024-03-17T12:11:43;19.23;;;8.68;;
80539;SDS011;69869;48.036;15.780;2024-03-17T12:14:30;18.88;;;8.63;;
80539;SDS011;69869;48.036;15.780;2024-03-17T12:16:56;20.70;;;8.95;;
80539;SDS011;69869;48.036;15.780;2024-03-17T12:21:53;18.25;;;7.85;;
80539;SDS011;69869;48.036;15.780;2024-03-17T12:26:50;17.30;;;8.02;;
80539;SDS011;69869;48.036;15.780;2024-03-17T12:29:28;15.77;;;7.65;;
80539;SDS011;69869;48.036;15.780;2024-03-17T12:31:58;17.20;;;7.28;;
80539;SDS011;69869;48.036;15.780;2024-03-17T12:34:27;18.15;;;7.05;;
80539;SDS011;69869;48.036;15.780;2024-03-17T12:36:55;12.63;;;6.43;;
80539;SDS011;69869;48.036;15.780;2024-03-17T12:39:24;14.00;;;6.88;;
80539;SDS011;69869;48.036;15.780;2024-03-17T12:42:11;13.35;;;6.53;;
80539;SDS011;69869;48.036;15.780;2024-03-17T12:44:52;13.32;;;6.15;;
80539;SDS011;69869;48.036;15.780;2024-03-17T12:47:22;13.07;;;6.38;;
80539;SDS011;69869;48.036;15.780;2024-03-17T12:49:58;10.57;;;5.63;;
80539;SDS011;69869;48.036;15.780;2024-03-17T12:52:28;14.32;;;6.20;;
80539;SDS011;69869;48.036;15.780;2024-03-17T12:57:50;11.55;;;4.95;;
80539;SDS011;69869;48.036;15.780;2024-03-17T13:00:35;9.82;;;5.75;;
80539;SDS011;69869;48.036;15.780;2024-03-17T13:03:01;11.80;;;5.45;;
80539;SDS011;69869;48.036;15.780;2024-03-17T13:05:29;10.95;;;5.13;;
80539;SDS011;69869;48.036;15.780;2024-03-17T13:07:55;11.20;;;5.03;;
80539;SDS011;69869;48.036;15.780;2024-03-17T13:10:22;7.97;;;4.38;;
80539;SDS011;69869;48.036;15.780;2024-03-17T13:12:57;10.13;;;5.28;;
80539;SDS011;69869;48.036;15.780;2024-03-17T13:15:28;9.30;;;4.63;;
80539;SDS011;69869;48.036;15.780;2024-03-17T13:17:57;8.73;;;4.53;;
80539;SDS011;69869;48.036;15.780;2024-03-17T13:20:24;10.23;;;4.30;;
80539;SDS011;69869;48.036;15.780;2024-03-17T13:22:50;8.30;;;4.20;;
80539;SDS011;69869;48.036;15.780;2024-03-17T13:25:16;7.88;;;4.05;;
80539;SDS011;69869;48.036;15.780;2024-03-17T13:27:45;6.43;;;4.18;;
80539;SDS011;69869;48.036;15.780;2024-03-17T13:30:12;8.75;;;4.15;;
80539;SDS011;69869;48.036;15.780;2024-03-17T13:32:38;7.75;;;4.53;;
80539;SDS011;69869;48.036;15.780;2024-03-17T13:35:07;6.85;;;3.80;;
80539;SDS011;69869;48.036;15.780;2024-03-17T13:37:39;7.25;;;3.90;;
80539;SDS011;69869;48.036;15.780;2024-03-17T13:40:05;6.88;;;4.07;;
80539;SDS011;69869;48.036;15.780;2024-03-17T13:42:31;7.50;;;3.60;;
80539;SDS011;69869;48.036;15.780;2024-03-17T13:44:57;5.82;;;3.58;;
80539;SDS011;69869;48.036;15.780;2024-03-17T13:47:22;5.40;;;3.72;;
80539;SDS011;69869;48.036;15.780;2024-03-17T13:49:48;6.97;;;3.83;;
80539;SDS011;69869;48.036;15.780;2024-03-17T13:52:14;5.60;;;3.35;;
80539;SDS011;69869;48.036;15.780;2024-03-17T13:54:39;5.82;;;3.20;;
80539;SDS011;69869;48.036;15.780;2024-03-17T13:57:05;5.43;;;3.28;;
80539;SDS011;69869;48.036;15.780;2024-03-17T13:59:33;4.53;;;2.95;;
80539;SDS011;69869;48.036;15.780;2024-03-17T14:02:00;4.65;;;3.15;;
80539;SDS011;69869;48.036;15.780;2024-03-17T14:04:27;4.53;;;3.10;;
80539;SDS011;69869;48.036;15.780;2024-03-17T14:06:52;5.07;;;3.28;;
80539;SDS011;69869;48.036;15.780;2024-03-17T14:09:18;4.55;;;2.58;;
80539;SDS011;69869;48.036;15.780;2024-03-17T14:11:44;5.63;;;3.28;;
80539;SDS011;69869;48.036;15.780;2024-03-17T14:14:10;3.30;;;2.65;;
80539;SDS011;69869;48.036;15.780;2024-03-17T14:16:37;4.15;;;3.00;;
80539;SDS011;69869;48.036;15.780;2024-03-17T14:19:02;3.88;;;2.63;;
80539;SDS011;69869;48.036;15.780;2024-03-17T14:21:28;3.60;;;2.65;;
80539;SDS011;69869;48.036;15.780;2024-03-17T14:23:54;4.45;;;2.47;;
80539;SDS011;69869;48.036;15.780;2024-03-17T14:26:21;4.43;;;2.67;;
80539;SDS011;69869;48.036;15.780;2024-03-17T14:28:47;4.93;;;3.08;;
80539;SDS011;69869;48.036;15.780;2024-03-17T14:31:15;4.25;;;2.38;;
80539;SDS011;69869;48.036;15.780;2024-03-17T14:33:42;3.60;;;2.30;;
80539;SDS011;69869;48.036;15.780;2024-03-17T14:36:08;3.00;;;2.30;;
80539;SDS011;69869;48.036;15.780;2024-03-17T14:38:34;2.65;;;2.00;;
80539;SDS011;69869;48.036;15.780;2024-03-17T14:41:00;2.55;;;2.00;;
80539;SDS011;69869;48.036;15.780;2024-03-17T14:43:26;3.53;;;2.28;;
80539;SDS011;69869;48.036;15.780;2024-03-17T14:45:52;2.58;;;2.00;;
80539;SDS011;69869;48.036;15.780;2024-03-17T14:48:18;2.95;;;1.88;;
80539;SDS011;69869;48.036;15.780;2024-03-17T14:50:44;3.67;;;2.00;;
80539;SDS011;69869;48.036;15.780;2024-03-17T14:53:10;2.78;;;2.22;;
80539;SDS011;69869;48.036;15.780;2024-03-17T14:55:36;2.50;;;1.90;;
80539;SDS011;69869;48.036;15.780;2024-03-17T14:58:01;2.05;;;1.85;;
80539;SDS011;69869;48.036;15.780;2024-03-17T15:00:27;2.10;;;1.80;;
80539;SDS011;69869;48.036;15.780;2024-03-17T15:02:55;3.25;;;2.38;;